sensor_id;sensor_type;location;lat;lon;timestamp;P1;durP1;ratioP1;P2;durP2;ratioP2
22883;SDS011;13386;24.786;110.488;2023-10-13T00:02:21;48.65;;;20.02;;
22883;SDS011;13386;24.786;110.488;2023-10-13T00:04:51;49.05;;;20.42;;
22883;SDS011;13386;24.786;110.488;2023-10-13T00:07:23;45.92;;;19.65;;
22883;SDS011;13386;24.786;110.488;2023-10-13T00:09:54;49.63;;;20.55;;
22883;SDS011;13386;24.786;110.488;2023-10-13T00:12:24;49.38;;;20.92;;
22883;SDS011;13386;24.786;110.488;2023-10-13T00:14:54;48.25;;;20.48;;
22883;SDS011;13386;24.786;110.488;2023-10-13T00:17:30;44.47;;;20.85;;
22883;SDS011;13386;24.786;110.488;2023-10-13T00:20:05;48.30;;;21.13;;
22883;SDS011;13386;24.786;110.488;2023-10-13T00:22:55;49.33;;;20.20;;
22883;SDS011;13386;24.786;110.488;2023-10-13T00:25:26;46.60;;;20.88;;
22883;SDS011;13386;24.786;110.488;2023-10-13T00:28:05;50.28;;;20.60;;
22883;SDS011;13386;24.786;110.488;2023-10-13T00:30:36;50.30;;;20.63;;
22883;SDS011;13386;24.786;110.488;2023-10-13T00:33:09;49.88;;;20.02;;
22883;SDS011;13386;24.786;110.488;2023-10-13T00:35:42;49.00;;;20.60;;
22883;SDS011;13386;24.786;110.488;2023-10-13T00:38:14;51.33;;;20.98;;
22883;SDS011;13386;24.786;110.488;2023-10-13T00:40:46;46.90;;;20.45;;
22883;SDS011;13386;24.786;110.488;2023-10-13T00:43:21;47.90;;;19.67;;
22883;SDS011;13386;24.786;110.488;2023-10-13T00:45:59;54.15;;;21.95;;
22883;SDS011;13386;24.786;110.488;2023-10-13T00:48:37;50.63;;;21.65;;
22883;SDS011;13386;24.786;110.488;2023-10-13T00:51:10;52.50;;;21.45;;
22883;SDS011;13386;24.786;110.488;2023-10-13T00:53:59;50.05;;;21.40;;
22883;SDS011;13386;24.786;110.488;2023-10-13T00:56:29;49.42;;;21.30;;
22883;SDS011;13386;24.786;110.488;2023-10-13T00:58:59;53.00;;;21.83;;
22883;SDS011;13386;24.786;110.488;2023-10-13T01:01:30;52.55;;;19.88;;
22883;SDS011;13386;24.786;110.488;2023-10-13T01:04:03;49.35;;;21.30;;
22883;SDS011;13386;24.786;110.488;2023-10-13T01:06:36;44.92;;;20.27;;
22883;SDS011;13386;24.786;110.488;2023-10-13T01:09:08;46.10;;;19.95;;
22883;SDS011;13386;24.786;110.488;2023-10-13T01:11:40;43.53;;;19.13;;
22883;SDS011;13386;24.786;110.488;2023-10-13T01:14:12;49.22;;;20.83;;
22883;SDS011;13386;24.786;110.488;2023-10-13T01:16:44;48.42;;;19.58;;
22883;SDS011;13386;24.786;110.488;2023-10-13T01:19:16;50.53;;;21.10;;
22883;SDS011;13386;24.786;110.488;2023-10-13T01:21:47;43.72;;;19.70;;
22883;SDS011;13386;24.786;110.488;2023-10-13T01:24:24;47.97;;;20.15;;
22883;SDS011;13386;24.786;110.488;2023-10-13T01:26:58;48.08;;;20.23;;
22883;SDS011;13386;24.786;110.488;2023-10-13T01:29:37;44.75;;;19.20;;
22883;SDS011;13386;24.786;110.488;2023-10-13T01:32:09;48.25;;;19.80;;
22883;SDS011;13386;24.786;110.488;2023-10-13T01:34:39;44.97;;;19.92;;
22883;SDS011;13386;24.786;110.488;2023-10-13T01:37:12;42.10;;;19.65;;
22883;SDS011;13386;24.786;110.488;2023-10-13T01:39:44;50.33;;;19.92;;
22883;SDS011;13386;24.786;110.488;2023-10-13T01:42:16;48.50;;;20.30;;
22883;SDS011;13386;24.786;110.488;2023-10-13T01:44:48;46.38;;;20.63;;
22883;SDS011;13386;24.786;110.488;2023-10-13T01:47:17;47.50;;;20.25;;
22883;SDS011;13386;24.786;110.488;2023-10-13T01:49:49;47.10;;;19.92;;
22883;SDS011;13386;24.786;110.488;2023-10-13T01:52:19;51.67;;;21.13;;
22883;SDS011;13386;24.786;110.488;2023-10-13T01:54:53;49.72;;;19.98;;
22883;SDS011;13386;24.786;110.488;2023-10-13T01:57:27;44.05;;;19.98;;
22883;SDS011;13386;24.786;110.488;2023-10-13T01:59:57;46.03;;;19.15;;
22883;SDS011;13386;24.786;110.488;2023-10-13T02:02:45;47.55;;;19.85;;
22883;SDS011;13386;24.786;110.488;2023-10-13T02:05:17;48.10;;;19.40;;
22883;SDS011;13386;24.786;110.488;2023-10-13T02:07:46;41.53;;;18.52;;
22883;SDS011;13386;24.786;110.488;2023-10-13T02:10:18;42.13;;;19.45;;
22883;SDS011;13386;24.786;110.488;2023-10-13T02:12:50;42.75;;;19.02;;
22883;SDS011;13386;24.786;110.488;2023-10-13T02:15:22;45.47;;;18.98;;
22883;SDS011;13386;24.786;110.488;2023-10-13T02:17:53;41.72;;;18.98;;
22883;SDS011;13386;24.786;110.488;2023-10-13T02:20:23;49.75;;;20.50;;
22883;SDS011;13386;24.786;110.488;2023-10-13T02:22:58;49.20;;;20.45;;
22883;SDS011;13386;24.786;110.488;2023-10-13T02:25:30;46.47;;;19.77;;
22883;SDS011;13386;24.786;110.488;2023-10-13T02:28:02;46.25;;;20.60;;
22883;SDS011;13386;24.786;110.488;2023-10-13T02:30:38;49.17;;;21.35;;
22883;SDS011;13386;24.786;110.488;2023-10-13T02:33:07;49.65;;;20.70;;
22883;SDS011;13386;24.786;110.488;2023-10-13T02:35:39;49.10;;;19.63;;
22883;SDS011;13386;24.786;110.488;2023-10-13T02:38:17;48.42;;;20.20;;
22883;SDS011;13386;24.786;110.488;2023-10-13T02:40:56;48.80;;;21.83;;
22883;SDS011;13386;24.786;110.488;2023-10-13T02:43:35;53.70;;;20.38;;
22883;SDS011;13386;24.786;110.488;2023-10-13T02:46:06;48.30;;;20.88;;
22883;SDS011;13386;24.786;110.488;2023-10-13T02:48:35;45.92;;;20.58;;
22883;SDS011;13386;24.786;110.488;2023-10-13T02:51:12;49.33;;;21.00;;
22883;SDS011;13386;24.786;110.488;2023-10-13T02:53:45;54.42;;;21.52;;
22883;SDS011;13386;24.786;110.488;2023-10-13T02:56:18;44.15;;;19.60;;
22883;SDS011;13386;24.786;110.488;2023-10-13T02:58:48;49.83;;;20.88;;
22883;SDS011;13386;24.786;110.488;2023-10-13T03:01:23;47.50;;;20.30;;
22883;SDS011;13386;24.786;110.488;2023-10-13T03:03:55;51.40;;;20.80;;
22883;SDS011;13386;24.786;110.488;2023-10-13T03:06:26;44.45;;;20.73;;
22883;SDS011;13386;24.786;110.488;2023-10-13T03:09:00;46.45;;;20.15;;
22883;SDS011;13386;24.786;110.488;2023-10-13T03:11:44;48.33;;;20.02;;
22883;SDS011;13386;24.786;110.488;2023-10-13T03:14:17;45.33;;;20.60;;
22883;SDS011;13386;24.786;110.488;2023-10-13T03:16:52;44.67;;;20.60;;
22883;SDS011;13386;24.786;110.488;2023-10-13T03:19:29;45.35;;;19.65;;
22883;SDS011;13386;24.786;110.488;2023-10-13T03:22:00;46.65;;;21.08;;
22883;SDS011;13386;24.786;110.488;2023-10-13T03:24:34;45.90;;;19.97;;
22883;SDS011;13386;24.786;110.488;2023-10-13T03:27:19;48.35;;;19.15;;
22883;SDS011;13386;24.786;110.488;2023-10-13T03:29:52;48.13;;;21.27;;
22883;SDS011;13386;24.786;110.488;2023-10-13T03:32:21;49.53;;;20.27;;
22883;SDS011;13386;24.786;110.488;2023-10-13T03:34:53;49.97;;;20.85;;
22883;SDS011;13386;24.786;110.488;2023-10-13T03:37:43;45.53;;;20.02;;
22883;SDS011;13386;24.786;110.488;2023-10-13T03:40:14;48.05;;;20.02;;
22883;SDS011;13386;24.786;110.488;2023-10-13T03:43:02;49.47;;;19.58;;
22883;SDS011;13386;24.786;110.488;2023-10-13T03:45:34;45.10;;;19.77;;
22883;SDS011;13386;24.786;110.488;2023-10-13T03:48:09;43.33;;;19.10;;
22883;SDS011;13386;24.786;110.488;2023-10-13T03:50:56;47.85;;;19.90;;
22883;SDS011;13386;24.786;110.488;2023-10-13T03:53:34;44.30;;;19.80;;
22883;SDS011;13386;24.786;110.488;2023-10-13T03:56:19;42.58;;;19.48;;
22883;SDS011;13386;24.786;110.488;2023-10-13T03:59:07;45.03;;;19.40;;
22883;SDS011;13386;24.786;110.488;2023-10-13T04:01:45;46.22;;;19.65;;
22883;SDS011;13386;24.786;110.488;2023-10-13T04:04:25;44.15;;;19.52;;
22883;SDS011;13386;24.786;110.488;2023-10-13T04:07:15;48.42;;;20.60;;
22883;SDS011;13386;24.786;110.488;2023-10-13T04:10:02;54.65;;;20.10;;
22883;SDS011;13386;24.786;110.488;2023-10-13T04:12:50;51.35;;;20.98;;
22883;SDS011;13386;24.786;110.488;2023-10-13T04:15:38;45.65;;;19.52;;
22883;SDS011;13386;24.786;110.488;2023-10-13T04:18:29;45.15;;;19.50;;
22883;SDS011;13386;24.786;110.488;2023-10-13T04:21:16;44.95;;;19.27;;
22883;SDS011;13386;24.786;110.488;2023-10-13T04:24:04;45.08;;;18.02;;
22883;SDS011;13386;24.786;110.488;2023-10-13T04:26:50;39.50;;;17.35;;
22883;SDS011;13386;24.786;110.488;2023-10-13T04:29:39;42.97;;;17.98;;
22883;SDS011;13386;24.786;110.488;2023-10-13T04:32:20;45.17;;;18.90;;
22883;SDS011;13386;24.786;110.488;2023-10-13T04:35:00;51.15;;;18.00;;
22883;SDS011;13386;24.786;110.488;2023-10-13T04:37:46;39.00;;;16.80;;
22883;SDS011;13386;24.786;110.488;2023-10-13T04:40:21;40.28;;;16.73;;
22883;SDS011;13386;24.786;110.488;2023-10-13T04:42:53;37.08;;;17.92;;
22883;SDS011;13386;24.786;110.488;2023-10-13T04:45:24;40.67;;;17.50;;
22883;SDS011;13386;24.786;110.488;2023-10-13T04:48:22;38.17;;;16.95;;
22883;SDS011;13386;24.786;110.488;2023-10-13T04:51:05;42.45;;;18.63;;
22883;SDS011;13386;24.786;110.488;2023-10-13T04:54:00;48.08;;;19.80;;
22883;SDS011;13386;24.786;110.488;2023-10-13T04:56:38;49.60;;;19.80;;
22883;SDS011;13386;24.786;110.488;2023-10-13T04:59:22;44.17;;;19.17;;
22883;SDS011;13386;24.786;110.488;2023-10-13T05:02:05;47.05;;;18.88;;
22883;SDS011;13386;24.786;110.488;2023-10-13T05:05:13;42.53;;;18.25;;
22883;SDS011;13386;24.786;110.488;2023-10-13T05:07:57;38.90;;;18.20;;
22883;SDS011;13386;24.786;110.488;2023-10-13T05:10:43;45.72;;;19.13;;
22883;SDS011;13386;24.786;110.488;2023-10-13T05:13:26;44.78;;;20.52;;
22883;SDS011;13386;24.786;110.488;2023-10-13T05:16:14;47.30;;;20.25;;
22883;SDS011;13386;24.786;110.488;2023-10-13T05:19:01;45.10;;;19.80;;
22883;SDS011;13386;24.786;110.488;2023-10-13T05:22:04;47.33;;;20.45;;
22883;SDS011;13386;24.786;110.488;2023-10-13T05:24:53;45.88;;;19.83;;
22883;SDS011;13386;24.786;110.488;2023-10-13T05:27:41;40.08;;;19.88;;
22883;SDS011;13386;24.786;110.488;2023-10-13T05:30:29;43.13;;;19.70;;
22883;SDS011;13386;24.786;110.488;2023-10-13T05:33:16;39.28;;;18.45;;
22883;SDS011;13386;24.786;110.488;2023-10-13T05:36:08;41.10;;;18.42;;
22883;SDS011;13386;24.786;110.488;2023-10-13T05:38:57;45.33;;;19.63;;
22883;SDS011;13386;24.786;110.488;2023-10-13T05:41:50;43.65;;;19.95;;
22883;SDS011;13386;24.786;110.488;2023-10-13T05:44:38;50.22;;;20.38;;
22883;SDS011;13386;24.786;110.488;2023-10-13T05:47:24;46.75;;;20.52;;
22883;SDS011;13386;24.786;110.488;2023-10-13T05:50:11;45.30;;;20.20;;
22883;SDS011;13386;24.786;110.488;2023-10-13T05:52:56;52.40;;;21.92;;
22883;SDS011;13386;24.786;110.488;2023-10-13T05:55:49;46.65;;;20.45;;
22883;SDS011;13386;24.786;110.488;2023-10-13T05:58:36;44.80;;;20.33;;
22883;SDS011;13386;24.786;110.488;2023-10-13T06:01:24;49.05;;;21.45;;
22883;SDS011;13386;24.786;110.488;2023-10-13T06:04:12;51.08;;;21.33;;
22883;SDS011;13386;24.786;110.488;2023-10-13T06:06:59;55.22;;;21.98;;
22883;SDS011;13386;24.786;110.488;2023-10-13T06:09:47;53.22;;;21.67;;
22883;SDS011;13386;24.786;110.488;2023-10-13T06:12:35;49.80;;;21.50;;
22883;SDS011;13386;24.786;110.488;2023-10-13T06:15:22;49.88;;;21.95;;
22883;SDS011;13386;24.786;110.488;2023-10-13T06:18:10;51.85;;;22.33;;
22883;SDS011;13386;24.786;110.488;2023-10-13T06:20:57;45.55;;;21.05;;
22883;SDS011;13386;24.786;110.488;2023-10-13T06:23:47;55.13;;;22.55;;
22883;SDS011;13386;24.786;110.488;2023-10-13T06:26:33;56.35;;;22.50;;
22883;SDS011;13386;24.786;110.488;2023-10-13T06:29:22;53.08;;;22.15;;
22883;SDS011;13386;24.786;110.488;2023-10-13T06:31:52;54.67;;;22.75;;
22883;SDS011;13386;24.786;110.488;2023-10-13T06:34:24;51.35;;;22.45;;
22883;SDS011;13386;24.786;110.488;2023-10-13T06:37:05;44.20;;;20.63;;
22883;SDS011;13386;24.786;110.488;2023-10-13T06:39:49;55.03;;;24.10;;
22883;SDS011;13386;24.786;110.488;2023-10-13T06:42:20;62.17;;;23.90;;
22883;SDS011;13386;24.786;110.488;2023-10-13T06:44:56;48.17;;;20.73;;
22883;SDS011;13386;24.786;110.488;2023-10-13T06:47:35;53.55;;;23.20;;
22883;SDS011;13386;24.786;110.488;2023-10-13T06:50:08;48.35;;;21.98;;
22883;SDS011;13386;24.786;110.488;2023-10-13T06:52:46;55.78;;;22.08;;
22883;SDS011;13386;24.786;110.488;2023-10-13T06:55:21;51.20;;;22.50;;
22883;SDS011;13386;24.786;110.488;2023-10-13T06:57:55;49.97;;;23.00;;
22883;SDS011;13386;24.786;110.488;2023-10-13T07:00:33;51.35;;;22.88;;
22883;SDS011;13386;24.786;110.488;2023-10-13T07:03:04;50.33;;;22.80;;
22883;SDS011;13386;24.786;110.488;2023-10-13T07:05:38;51.58;;;23.73;;
22883;SDS011;13386;24.786;110.488;2023-10-13T07:08:09;49.83;;;21.35;;
22883;SDS011;13386;24.786;110.488;2023-10-13T07:10:47;49.55;;;22.85;;
22883;SDS011;13386;24.786;110.488;2023-10-13T07:13:29;54.03;;;23.35;;
22883;SDS011;13386;24.786;110.488;2023-10-13T07:16:06;51.45;;;22.52;;
22883;SDS011;13386;24.786;110.488;2023-10-13T07:18:39;47.75;;;21.52;;
22883;SDS011;13386;24.786;110.488;2023-10-13T07:21:23;50.95;;;22.30;;
22883;SDS011;13386;24.786;110.488;2023-10-13T07:23:59;54.47;;;22.95;;
22883;SDS011;13386;24.786;110.488;2023-10-13T07:26:35;54.10;;;22.45;;
22883;SDS011;13386;24.786;110.488;2023-10-13T07:29:09;50.65;;;22.63;;
22883;SDS011;13386;24.786;110.488;2023-10-13T07:31:42;55.63;;;23.70;;
22883;SDS011;13386;24.786;110.488;2023-10-13T07:34:13;47.75;;;21.83;;
22883;SDS011;13386;24.786;110.488;2023-10-13T07:36:51;57.10;;;23.92;;
22883;SDS011;13386;24.786;110.488;2023-10-13T07:39:27;58.00;;;23.77;;
22883;SDS011;13386;24.786;110.488;2023-10-13T07:42:01;54.17;;;22.83;;
22883;SDS011;13386;24.786;110.488;2023-10-13T07:44:43;49.40;;;23.40;;
22883;SDS011;13386;24.786;110.488;2023-10-13T07:47:16;54.28;;;23.83;;
22883;SDS011;13386;24.786;110.488;2023-10-13T07:49:51;51.60;;;21.83;;
22883;SDS011;13386;24.786;110.488;2023-10-13T07:52:25;51.92;;;22.95;;
22883;SDS011;13386;24.786;110.488;2023-10-13T07:55:26;57.70;;;24.13;;
22883;SDS011;13386;24.786;110.488;2023-10-13T07:58:00;59.30;;;23.42;;
22883;SDS011;13386;24.786;110.488;2023-10-13T08:00:37;58.08;;;23.10;;
22883;SDS011;13386;24.786;110.488;2023-10-13T08:03:23;54.92;;;23.88;;
22883;SDS011;13386;24.786;110.488;2023-10-13T08:06:18;56.35;;;22.67;;
22883;SDS011;13386;24.786;110.488;2023-10-13T08:08:52;57.20;;;23.08;;
22883;SDS011;13386;24.786;110.488;2023-10-13T08:11:34;56.38;;;23.73;;
22883;SDS011;13386;24.786;110.488;2023-10-13T08:14:04;55.58;;;23.58;;
22883;SDS011;13386;24.786;110.488;2023-10-13T08:16:51;53.15;;;23.60;;
22883;SDS011;13386;24.786;110.488;2023-10-13T08:19:23;59.80;;;23.90;;
22883;SDS011;13386;24.786;110.488;2023-10-13T08:22:01;50.65;;;24.08;;
22883;SDS011;13386;24.786;110.488;2023-10-13T08:24:51;54.95;;;23.10;;
22883;SDS011;13386;24.786;110.488;2023-10-13T08:27:42;52.38;;;22.33;;
22883;SDS011;13386;24.786;110.488;2023-10-13T08:30:52;51.75;;;22.77;;
22883;SDS011;13386;24.786;110.488;2023-10-13T08:33:23;60.22;;;22.88;;
22883;SDS011;13386;24.786;110.488;2023-10-13T08:35:59;53.33;;;23.08;;
22883;SDS011;13386;24.786;110.488;2023-10-13T08:38:56;48.20;;;21.50;;
22883;SDS011;13386;24.786;110.488;2023-10-13T08:41:47;47.03;;;20.75;;
22883;SDS011;13386;24.786;110.488;2023-10-13T08:44:39;55.63;;;22.73;;
22883;SDS011;13386;24.786;110.488;2023-10-13T08:49:46;58.35;;;24.08;;
22883;SDS011;13386;24.786;110.488;2023-10-13T08:52:19;52.47;;;22.60;;
22883;SDS011;13386;24.786;110.488;2023-10-13T08:55:16;49.25;;;22.95;;
22883;SDS011;13386;24.786;110.488;2023-10-13T08:58:15;57.40;;;22.70;;
22883;SDS011;13386;24.786;110.488;2023-10-13T09:00:50;52.72;;;23.40;;
22883;SDS011;13386;24.786;110.488;2023-10-13T09:03:41;53.17;;;22.30;;
22883;SDS011;13386;24.786;110.488;2023-10-13T09:06:16;47.50;;;22.17;;
22883;SDS011;13386;24.786;110.488;2023-10-13T09:08:48;50.22;;;22.00;;
22883;SDS011;13386;24.786;110.488;2023-10-13T09:11:36;47.55;;;21.92;;
22883;SDS011;13386;24.786;110.488;2023-10-13T09:14:17;56.30;;;21.88;;
22883;SDS011;13386;24.786;110.488;2023-10-13T09:17:04;52.00;;;20.83;;
22883;SDS011;13386;24.786;110.488;2023-10-13T09:19:48;56.72;;;22.10;;
22883;SDS011;13386;24.786;110.488;2023-10-13T09:22:22;50.83;;;21.42;;
22883;SDS011;13386;24.786;110.488;2023-10-13T09:25:04;51.47;;;20.92;;
22883;SDS011;13386;24.786;110.488;2023-10-13T09:27:33;47.88;;;21.02;;
22883;SDS011;13386;24.786;110.488;2023-10-13T09:30:05;54.45;;;21.63;;
22883;SDS011;13386;24.786;110.488;2023-10-13T09:32:45;44.72;;;20.17;;
22883;SDS011;13386;24.786;110.488;2023-10-13T09:35:18;47.22;;;20.00;;
22883;SDS011;13386;24.786;110.488;2023-10-13T09:37:49;52.35;;;20.50;;
22883;SDS011;13386;24.786;110.488;2023-10-13T09:40:21;50.92;;;20.67;;
22883;SDS011;13386;24.786;110.488;2023-10-13T09:42:56;49.35;;;20.40;;
22883;SDS011;13386;24.786;110.488;2023-10-13T09:48:03;49.63;;;20.70;;
22883;SDS011;13386;24.786;110.488;2023-10-13T09:50:39;55.60;;;19.75;;
22883;SDS011;13386;24.786;110.488;2023-10-13T09:53:11;48.67;;;19.25;;
22883;SDS011;13386;24.786;110.488;2023-10-13T09:55:43;44.83;;;19.35;;
22883;SDS011;13386;24.786;110.488;2023-10-13T09:58:16;43.97;;;18.75;;
22883;SDS011;13386;24.786;110.488;2023-10-13T10:00:47;46.97;;;20.63;;
22883;SDS011;13386;24.786;110.488;2023-10-13T10:03:26;45.92;;;18.95;;
22883;SDS011;13386;24.786;110.488;2023-10-13T10:06:06;41.88;;;19.15;;
22883;SDS011;13386;24.786;110.488;2023-10-13T10:08:47;47.47;;;20.08;;
22883;SDS011;13386;24.786;110.488;2023-10-13T10:12:08;48.00;;;20.50;;
22883;SDS011;13386;24.786;110.488;2023-10-13T10:14:59;44.10;;;18.95;;
22883;SDS011;13386;24.786;110.488;2023-10-13T10:17:38;44.92;;;19.02;;
22883;SDS011;13386;24.786;110.488;2023-10-13T10:20:09;48.08;;;19.42;;
22883;SDS011;13386;24.786;110.488;2023-10-13T10:22:59;51.50;;;20.23;;
22883;SDS011;13386;24.786;110.488;2023-10-13T10:25:31;48.15;;;19.95;;
22883;SDS011;13386;24.786;110.488;2023-10-13T10:28:07;49.38;;;20.35;;
22883;SDS011;13386;24.786;110.488;2023-10-13T10:30:43;49.42;;;20.23;;
22883;SDS011;13386;24.786;110.488;2023-10-13T10:33:13;60.65;;;20.88;;
22883;SDS011;13386;24.786;110.488;2023-10-13T10:35:45;57.00;;;21.17;;
22883;SDS011;13386;24.786;110.488;2023-10-13T10:38:16;52.50;;;20.55;;
22883;SDS011;13386;24.786;110.488;2023-10-13T10:41:01;50.10;;;20.05;;
22883;SDS011;13386;24.786;110.488;2023-10-13T10:43:37;47.42;;;19.80;;
22883;SDS011;13386;24.786;110.488;2023-10-13T10:46:14;46.05;;;20.45;;
22883;SDS011;13386;24.786;110.488;2023-10-13T10:48:45;59.40;;;21.42;;
22883;SDS011;13386;24.786;110.488;2023-10-13T10:51:23;46.25;;;20.30;;
22883;SDS011;13386;24.786;110.488;2023-10-13T10:56:38;47.45;;;19.80;;
22883;SDS011;13386;24.786;110.488;2023-10-13T10:59:11;52.10;;;20.73;;
22883;SDS011;13386;24.786;110.488;2023-10-13T11:01:45;48.17;;;20.58;;
22883;SDS011;13386;24.786;110.488;2023-10-13T11:04:18;44.55;;;19.90;;
22883;SDS011;13386;24.786;110.488;2023-10-13T11:06:51;52.45;;;21.58;;
22883;SDS011;13386;24.786;110.488;2023-10-13T11:09:24;55.50;;;23.08;;
22883;SDS011;13386;24.786;110.488;2023-10-13T11:12:10;83.15;;;27.33;;
22883;SDS011;13386;24.786;110.488;2023-10-13T11:15:02;75.80;;;26.15;;
22883;SDS011;13386;24.786;110.488;2023-10-13T11:17:47;74.75;;;27.48;;
22883;SDS011;13386;24.786;110.488;2023-10-13T11:20:44;79.63;;;28.67;;
22883;SDS011;13386;24.786;110.488;2023-10-13T11:23:18;88.90;;;28.55;;
22883;SDS011;13386;24.786;110.488;2023-10-13T11:25:57;91.25;;;30.92;;
22883;SDS011;13386;24.786;110.488;2023-10-13T11:28:29;87.95;;;29.25;;
22883;SDS011;13386;24.786;110.488;2023-10-13T11:31:04;82.22;;;29.30;;
22883;SDS011;13386;24.786;110.488;2023-10-13T11:33:46;78.82;;;28.10;;
22883;SDS011;13386;24.786;110.488;2023-10-13T11:36:17;73.88;;;26.85;;
22883;SDS011;13386;24.786;110.488;2023-10-13T11:38:57;65.15;;;24.75;;
22883;SDS011;13386;24.786;110.488;2023-10-13T11:41:28;69.63;;;25.08;;
22883;SDS011;13386;24.786;110.488;2023-10-13T11:44:01;62.13;;;25.38;;
22883;SDS011;13386;24.786;110.488;2023-10-13T11:46:41;65.35;;;24.02;;
22883;SDS011;13386;24.786;110.488;2023-10-13T11:49:33;60.33;;;24.77;;
22883;SDS011;13386;24.786;110.488;2023-10-13T11:52:07;57.72;;;24.50;;
22883;SDS011;13386;24.786;110.488;2023-10-13T11:54:52;61.38;;;24.25;;
22883;SDS011;13386;24.786;110.488;2023-10-13T11:57:24;65.63;;;24.30;;
22883;SDS011;13386;24.786;110.488;2023-10-13T11:59:55;63.22;;;24.77;;
22883;SDS011;13386;24.786;110.488;2023-10-13T12:02:51;63.47;;;24.85;;
22883;SDS011;13386;24.786;110.488;2023-10-13T12:05:37;61.25;;;23.40;;
22883;SDS011;13386;24.786;110.488;2023-10-13T12:08:33;68.78;;;26.35;;
22883;SDS011;13386;24.786;110.488;2023-10-13T12:11:19;64.07;;;25.05;;
22883;SDS011;13386;24.786;110.488;2023-10-13T12:14:12;56.20;;;23.90;;
22883;SDS011;13386;24.786;110.488;2023-10-13T12:16:48;57.63;;;24.05;;
22883;SDS011;13386;24.786;110.488;2023-10-13T12:19:22;64.97;;;24.17;;
22883;SDS011;13386;24.786;110.488;2023-10-13T12:21:55;67.20;;;24.73;;
22883;SDS011;13386;24.786;110.488;2023-10-13T12:24:38;63.00;;;23.80;;
22883;SDS011;13386;24.786;110.488;2023-10-13T12:27:12;60.83;;;24.85;;
22883;SDS011;13386;24.786;110.488;2023-10-13T12:29:50;62.67;;;24.50;;
22883;SDS011;13386;24.786;110.488;2023-10-13T12:32:23;71.00;;;26.30;;
22883;SDS011;13386;24.786;110.488;2023-10-13T12:35:01;60.23;;;24.03;;
22883;SDS011;13386;24.786;110.488;2023-10-13T12:37:44;63.33;;;24.52;;
22883;SDS011;13386;24.786;110.488;2023-10-13T12:40:34;63.78;;;24.73;;
22883;SDS011;13386;24.786;110.488;2023-10-13T12:43:23;63.65;;;24.42;;
22883;SDS011;13386;24.786;110.488;2023-10-13T12:46:10;60.85;;;23.27;;
22883;SDS011;13386;24.786;110.488;2023-10-13T12:49:07;57.05;;;24.30;;
22883;SDS011;13386;24.786;110.488;2023-10-13T12:52:08;57.55;;;23.65;;
22883;SDS011;13386;24.786;110.488;2023-10-13T12:54:48;59.08;;;23.35;;
22883;SDS011;13386;24.786;110.488;2023-10-13T12:57:25;56.67;;;24.55;;
22883;SDS011;13386;24.786;110.488;2023-10-13T12:59:59;53.55;;;22.48;;
22883;SDS011;13386;24.786;110.488;2023-10-13T13:02:45;53.55;;;22.00;;
22883;SDS011;13386;24.786;110.488;2023-10-13T13:05:19;50.80;;;23.13;;
22883;SDS011;13386;24.786;110.488;2023-10-13T13:08:00;56.53;;;23.83;;
22883;SDS011;13386;24.786;110.488;2023-10-13T13:10:33;57.20;;;23.17;;
22883;SDS011;13386;24.786;110.488;2023-10-13T13:13:08;52.05;;;23.17;;
22883;SDS011;13386;24.786;110.488;2023-10-13T13:15:39;53.53;;;22.58;;
22883;SDS011;13386;24.786;110.488;2023-10-13T13:18:11;54.50;;;22.92;;
22883;SDS011;13386;24.786;110.488;2023-10-13T13:20:50;54.50;;;23.08;;
22883;SDS011;13386;24.786;110.488;2023-10-13T13:23:34;51.15;;;21.23;;
22883;SDS011;13386;24.786;110.488;2023-10-13T13:26:08;48.83;;;21.83;;
22883;SDS011;13386;24.786;110.488;2023-10-13T13:28:44;44.97;;;20.67;;
22883;SDS011;13386;24.786;110.488;2023-10-13T13:31:22;49.78;;;21.88;;
22883;SDS011;13386;24.786;110.488;2023-10-13T13:33:56;48.35;;;22.10;;
22883;SDS011;13386;24.786;110.488;2023-10-13T13:36:30;50.17;;;21.55;;
22883;SDS011;13386;24.786;110.488;2023-10-13T13:39:04;48.47;;;21.23;;
22883;SDS011;13386;24.786;110.488;2023-10-13T13:41:39;51.20;;;21.58;;
22883;SDS011;13386;24.786;110.488;2023-10-13T13:44:12;56.70;;;21.95;;
22883;SDS011;13386;24.786;110.488;2023-10-13T13:46:45;46.38;;;20.58;;
22883;SDS011;13386;24.786;110.488;2023-10-13T13:49:25;49.72;;;21.25;;
22883;SDS011;13386;24.786;110.488;2023-10-13T13:52:07;48.60;;;20.60;;
22883;SDS011;13386;24.786;110.488;2023-10-13T13:54:47;43.45;;;20.10;;
22883;SDS011;13386;24.786;110.488;2023-10-13T13:57:18;49.80;;;20.27;;
22883;SDS011;13386;24.786;110.488;2023-10-13T13:59:49;48.70;;;21.33;;
22883;SDS011;13386;24.786;110.488;2023-10-13T14:02:26;51.28;;;21.63;;
22883;SDS011;13386;24.786;110.488;2023-10-13T14:05:02;48.33;;;20.52;;
22883;SDS011;13386;24.786;110.488;2023-10-13T14:07:36;43.22;;;20.52;;
22883;SDS011;13386;24.786;110.488;2023-10-13T14:10:08;48.35;;;20.55;;
22883;SDS011;13386;24.786;110.488;2023-10-13T14:13:13;45.72;;;21.60;;
22883;SDS011;13386;24.786;110.488;2023-10-13T14:15:43;49.60;;;20.33;;
22883;SDS011;13386;24.786;110.488;2023-10-13T14:18:19;41.70;;;18.75;;
22883;SDS011;13386;24.786;110.488;2023-10-13T14:20:57;46.35;;;19.70;;
22883;SDS011;13386;24.786;110.488;2023-10-13T14:23:31;50.55;;;20.67;;
22883;SDS011;13386;24.786;110.488;2023-10-13T14:26:04;46.33;;;20.25;;
22883;SDS011;13386;24.786;110.488;2023-10-13T14:28:40;45.55;;;20.25;;
22883;SDS011;13386;24.786;110.488;2023-10-13T14:31:23;45.35;;;19.27;;
22883;SDS011;13386;24.786;110.488;2023-10-13T14:33:57;44.65;;;20.05;;
22883;SDS011;13386;24.786;110.488;2023-10-13T14:36:30;44.15;;;19.67;;
22883;SDS011;13386;24.786;110.488;2023-10-13T14:39:07;44.60;;;19.30;;
22883;SDS011;13386;24.786;110.488;2023-10-13T14:41:39;50.20;;;19.67;;
22883;SDS011;13386;24.786;110.488;2023-10-13T14:44:20;44.13;;;19.33;;
22883;SDS011;13386;24.786;110.488;2023-10-13T14:46:55;43.58;;;18.30;;
22883;SDS011;13386;24.786;110.488;2023-10-13T14:49:30;48.72;;;19.73;;
22883;SDS011;13386;24.786;110.488;2023-10-13T14:52:05;46.33;;;19.42;;
22883;SDS011;13386;24.786;110.488;2023-10-13T14:54:36;45.35;;;19.65;;
22883;SDS011;13386;24.786;110.488;2023-10-13T14:57:12;53.67;;;20.20;;
22883;SDS011;13386;24.786;110.488;2023-10-13T14:59:45;47.20;;;20.15;;
22883;SDS011;13386;24.786;110.488;2023-10-13T15:02:15;46.90;;;19.77;;
22883;SDS011;13386;24.786;110.488;2023-10-13T15:04:51;49.47;;;20.15;;
22883;SDS011;13386;24.786;110.488;2023-10-13T15:07:26;44.38;;;20.65;;
22883;SDS011;13386;24.786;110.488;2023-10-13T15:09:58;47.95;;;21.27;;